sensor_id;sensor_type;location;lat;lon;timestamp;P1;durP1;ratioP1;P2;durP2;ratioP2
4420;SDS011;11824;51.178;13.546;2024-03-23T00:54:05;46.70;;;20.97;;
4420;SDS011;11824;51.178;13.546;2024-03-23T00:56:32;40.60;;;19.70;;
4420;SDS011;11824;51.178;13.546;2024-03-23T00:59:00;34.10;;;18.67;;
4420;SDS011;11824;51.178;13.546;2024-03-23T01:01:27;41.70;;;18.77;;
4420;SDS011;11824;51.178;13.546;2024-03-23T01:03:54;37.10;;;19.87;;
4420;SDS011;11824;51.178;13.546;2024-03-23T01:06:21;32.93;;;18.33;;
4420;SDS011;11824;51.178;13.546;2024-03-23T01:08:49;41.97;;;20.97;;
4420;SDS011;11824;51.178;13.546;2024-03-23T01:11:17;38.13;;;21.73;;
4420;SDS011;11824;51.178;13.546;2024-03-23T01:13:45;39.80;;;20.30;;
4420;SDS011;11824;51.178;13.546;2024-03-23T01:16:11;36.17;;;18.40;;
4420;SDS011;11824;51.178;13.546;2024-03-23T01:18:39;34.63;;;19.30;;
4420;SDS011;11824;51.178;13.546;2024-03-23T01:21:06;38.03;;;20.70;;
4420;SDS011;11824;51.178;13.546;2024-03-23T01:23:34;29.47;;;17.17;;
4420;SDS011;11824;51.178;13.546;2024-03-23T01:26:00;31.07;;;17.50;;
4420;SDS011;11824;51.178;13.546;2024-03-23T01:28:30;40.60;;;20.37;;
4420;SDS011;11824;51.178;13.546;2024-03-23T01:30:56;37.20;;;19.13;;
4420;SDS011;11824;51.178;13.546;2024-03-23T01:33:24;37.60;;;20.03;;
4420;SDS011;11824;51.178;13.546;2024-03-23T01:35:51;38.00;;;20.37;;
4420;SDS011;11824;51.178;13.546;2024-03-23T01:38:19;37.40;;;21.37;;
4420;SDS011;11824;51.178;13.546;2024-03-23T01:40:46;41.73;;;22.70;;
4420;SDS011;11824;51.178;13.546;2024-03-23T01:43:13;41.13;;;21.87;;
4420;SDS011;11824;51.178;13.546;2024-03-23T01:45:41;38.00;;;21.17;;
4420;SDS011;11824;51.178;13.546;2024-03-23T01:48:09;38.70;;;21.23;;
4420;SDS011;11824;51.178;13.546;2024-03-23T01:50:37;50.57;;;21.83;;
4420;SDS011;11824;51.178;13.546;2024-03-23T01:53:05;38.17;;;20.83;;
4420;SDS011;11824;51.178;13.546;2024-03-23T01:55:32;37.07;;;20.53;;
4420;SDS011;11824;51.178;13.546;2024-03-23T01:58:00;42.60;;;22.00;;
4420;SDS011;11824;51.178;13.546;2024-03-23T02:00:27;37.20;;;21.53;;
4420;SDS011;11824;51.178;13.546;2024-03-23T02:02:56;41.77;;;23.27;;
4420;SDS011;11824;51.178;13.546;2024-03-23T02:05:23;48.20;;;23.03;;
4420;SDS011;11824;51.178;13.546;2024-03-23T02:07:51;43.47;;;22.10;;
4420;SDS011;11824;51.178;13.546;2024-03-23T02:10:17;41.33;;;22.60;;
4420;SDS011;11824;51.178;13.546;2024-03-23T02:12:45;45.47;;;22.77;;
4420;SDS011;11824;51.178;13.546;2024-03-23T02:15:12;38.27;;;21.07;;
4420;SDS011;11824;51.178;13.546;2024-03-23T02:17:40;42.40;;;23.70;;
4420;SDS011;11824;51.178;13.546;2024-03-23T02:20:08;39.87;;;22.53;;
4420;SDS011;11824;51.178;13.546;2024-03-23T02:22:38;37.50;;;20.60;;
4420;SDS011;11824;51.178;13.546;2024-03-23T02:25:06;41.13;;;21.00;;
4420;SDS011;11824;51.178;13.546;2024-03-23T02:27:34;39.03;;;20.23;;
4420;SDS011;11824;51.178;13.546;2024-03-23T02:30:01;36.63;;;21.30;;
4420;SDS011;11824;51.178;13.546;2024-03-23T02:32:29;45.87;;;21.23;;
4420;SDS011;11824;51.178;13.546;2024-03-23T02:34:56;40.70;;;21.57;;
4420;SDS011;11824;51.178;13.546;2024-03-23T02:37:24;39.03;;;21.20;;
4420;SDS011;11824;51.178;13.546;2024-03-23T02:39:50;38.43;;;20.50;;
4420;SDS011;11824;51.178;13.546;2024-03-23T02:42:20;42.23;;;23.80;;
4420;SDS011;11824;51.178;13.546;2024-03-23T02:44:46;41.37;;;24.57;;
4420;SDS011;11824;51.178;13.546;2024-03-23T02:47:14;46.20;;;23.20;;
4420;SDS011;11824;51.178;13.546;2024-03-23T02:49:41;41.60;;;24.53;;
4420;SDS011;11824;51.178;13.546;2024-03-23T02:52:09;45.07;;;24.17;;
4420;SDS011;11824;51.178;13.546;2024-03-23T02:54:36;55.13;;;25.70;;
4420;SDS011;11824;51.178;13.546;2024-03-23T02:57:04;48.77;;;24.50;;
4420;SDS011;11824;51.178;13.546;2024-03-23T02:59:32;37.30;;;22.07;;
4420;SDS011;11824;51.178;13.546;2024-03-23T03:01:59;44.33;;;24.20;;
4420;SDS011;11824;51.178;13.546;2024-03-23T03:04:26;41.03;;;23.50;;
4420;SDS011;11824;51.178;13.546;2024-03-23T03:06:54;48.37;;;25.40;;
4420;SDS011;11824;51.178;13.546;2024-03-23T03:09:21;43.70;;;24.20;;
4420;SDS011;11824;51.178;13.546;2024-03-23T03:11:49;37.73;;;22.10;;
4420;SDS011;11824;51.178;13.546;2024-03-23T03:14:15;39.63;;;21.93;;
4420;SDS011;11824;51.178;13.546;2024-03-23T03:16:44;42.90;;;22.53;;
4420;SDS011;11824;51.178;13.546;2024-03-23T03:19:11;42.60;;;23.27;;
4420;SDS011;11824;51.178;13.546;2024-03-23T03:21:39;45.70;;;23.23;;
4420;SDS011;11824;51.178;13.546;2024-03-23T03:24:06;39.60;;;23.00;;
4420;SDS011;11824;51.178;13.546;2024-03-23T03:26:34;39.63;;;22.00;;
4420;SDS011;11824;51.178;13.546;2024-03-23T03:29:01;48.20;;;23.87;;
4420;SDS011;11824;51.178;13.546;2024-03-23T03:31:29;38.53;;;21.73;;
4420;SDS011;11824;51.178;13.546;2024-03-23T03:33:57;41.40;;;21.73;;
4420;SDS011;11824;51.178;13.546;2024-03-23T03:36:25;38.70;;;22.43;;
4420;SDS011;11824;51.178;13.546;2024-03-23T03:38:51;46.73;;;24.87;;
4420;SDS011;11824;51.178;13.546;2024-03-23T03:41:19;41.43;;;21.90;;
4420;SDS011;11824;51.178;13.546;2024-03-23T03:43:46;45.10;;;23.90;;
4420;SDS011;11824;51.178;13.546;2024-03-23T03:46:14;51.00;;;25.43;;
4420;SDS011;11824;51.178;13.546;2024-03-23T03:48:41;50.13;;;24.90;;
4420;SDS011;11824;51.178;13.546;2024-03-23T03:51:11;52.10;;;27.53;;
4420;SDS011;11824;51.178;13.546;2024-03-23T03:53:38;49.07;;;24.93;;
4420;SDS011;11824;51.178;13.546;2024-03-23T03:56:06;56.10;;;27.23;;
4420;SDS011;11824;51.178;13.546;2024-03-23T03:58:33;46.30;;;25.20;;
4420;SDS011;11824;51.178;13.546;2024-03-23T04:01:00;46.70;;;24.90;;
4420;SDS011;11824;51.178;13.546;2024-03-23T04:03:27;45.23;;;25.17;;
4420;SDS011;11824;51.178;13.546;2024-03-23T04:05:55;44.63;;;24.50;;
4420;SDS011;11824;51.178;13.546;2024-03-23T04:08:23;45.30;;;24.53;;
4420;SDS011;11824;51.178;13.546;2024-03-23T04:10:51;53.03;;;25.23;;
4420;SDS011;11824;51.178;13.546;2024-03-23T04:13:18;42.10;;;22.67;;
4420;SDS011;11824;51.178;13.546;2024-03-23T04:15:46;44.13;;;22.63;;
4420;SDS011;11824;51.178;13.546;2024-03-23T04:18:13;39.90;;;23.73;;
4420;SDS011;11824;51.178;13.546;2024-03-23T04:20:40;45.73;;;23.37;;
4420;SDS011;11824;51.178;13.546;2024-03-23T04:23:07;40.10;;;23.77;;
4420;SDS011;11824;51.178;13.546;2024-03-23T04:25:36;45.63;;;22.73;;
4420;SDS011;11824;51.178;13.546;2024-03-23T04:28:03;46.30;;;25.57;;
4420;SDS011;11824;51.178;13.546;2024-03-23T04:30:32;39.60;;;23.80;;
4420;SDS011;11824;51.178;13.546;2024-03-23T04:32:58;47.40;;;24.60;;
4420;SDS011;11824;51.178;13.546;2024-03-23T04:35:26;43.17;;;24.20;;
4420;SDS011;11824;51.178;13.546;2024-03-23T04:37:53;52.50;;;23.97;;
4420;SDS011;11824;51.178;13.546;2024-03-23T04:40:24;50.10;;;24.80;;
4420;SDS011;11824;51.178;13.546;2024-03-23T04:42:53;55.33;;;27.27;;
4420;SDS011;11824;51.178;13.546;2024-03-23T04:45:21;59.17;;;27.37;;
4420;SDS011;11824;51.178;13.546;2024-03-23T04:47:48;54.47;;;28.50;;
4420;SDS011;11824;51.178;13.546;2024-03-23T04:50:16;58.10;;;26.53;;
4420;SDS011;11824;51.178;13.546;2024-03-23T04:52:43;46.90;;;25.33;;
4420;SDS011;11824;51.178;13.546;2024-03-23T04:55:11;48.30;;;26.10;;
4420;SDS011;11824;51.178;13.546;2024-03-23T04:57:39;49.27;;;24.87;;
4420;SDS011;11824;51.178;13.546;2024-03-23T05:00:09;46.50;;;25.60;;
4420;SDS011;11824;51.178;13.546;2024-03-23T05:02:43;48.50;;;26.37;;
4420;SDS011;11824;51.178;13.546;2024-03-23T05:05:11;57.00;;;26.83;;
4420;SDS011;11824;51.178;13.546;2024-03-23T05:07:38;57.23;;;28.03;;
4420;SDS011;11824;51.178;13.546;2024-03-23T05:10:07;56.10;;;28.90;;
4420;SDS011;11824;51.178;13.546;2024-03-23T05:12:36;57.27;;;29.23;;
4420;SDS011;11824;51.178;13.546;2024-03-23T05:15:04;49.90;;;27.93;;
4420;SDS011;11824;51.178;13.546;2024-03-23T05:17:33;59.73;;;26.83;;
4420;SDS011;11824;51.178;13.546;2024-03-23T05:20:01;53.13;;;29.80;;
4420;SDS011;11824;51.178;13.546;2024-03-23T05:22:28;49.20;;;26.23;;
4420;SDS011;11824;51.178;13.546;2024-03-23T05:24:57;59.40;;;27.80;;
4420;SDS011;11824;51.178;13.546;2024-03-23T05:27:24;47.23;;;25.83;;
4420;SDS011;11824;51.178;13.546;2024-03-23T05:29:51;55.40;;;26.80;;
4420;SDS011;11824;51.178;13.546;2024-03-23T05:32:18;56.07;;;29.37;;
4420;SDS011;11824;51.178;13.546;2024-03-23T05:34:47;59.67;;;28.83;;
4420;SDS011;11824;51.178;13.546;2024-03-23T05:37:17;75.60;;;30.80;;
4420;SDS011;11824;51.178;13.546;2024-03-23T05:39:44;55.80;;;28.40;;
4420;SDS011;11824;51.178;13.546;2024-03-23T05:42:13;56.10;;;28.20;;
4420;SDS011;11824;51.178;13.546;2024-03-23T05:44:42;57.90;;;29.17;;
4420;SDS011;11824;51.178;13.546;2024-03-23T05:47:09;55.73;;;28.27;;
4420;SDS011;11824;51.178;13.546;2024-03-23T05:49:38;59.20;;;27.60;;
4420;SDS011;11824;51.178;13.546;2024-03-23T05:52:08;53.57;;;26.70;;
4420;SDS011;11824;51.178;13.546;2024-03-23T05:54:37;58.93;;;28.97;;
4420;SDS011;11824;51.178;13.546;2024-03-23T05:57:04;55.13;;;28.53;;
4420;SDS011;11824;51.178;13.546;2024-03-23T05:59:32;51.27;;;27.77;;
4420;SDS011;11824;51.178;13.546;2024-03-23T06:01:59;51.87;;;28.67;;
4420;SDS011;11824;51.178;13.546;2024-03-23T06:04:29;48.47;;;26.90;;
4420;SDS011;11824;51.178;13.546;2024-03-23T06:06:55;59.53;;;27.37;;
4420;SDS011;11824;51.178;13.546;2024-03-23T06:09:25;50.07;;;26.93;;
4420;SDS011;11824;51.178;13.546;2024-03-23T06:11:52;41.60;;;24.03;;
4420;SDS011;11824;51.178;13.546;2024-03-23T06:14:20;43.77;;;25.87;;
4420;SDS011;11824;51.178;13.546;2024-03-23T06:16:46;47.50;;;28.33;;
4420;SDS011;11824;51.178;13.546;2024-03-23T06:19:14;51.13;;;26.20;;
4420;SDS011;11824;51.178;13.546;2024-03-23T06:21:42;55.57;;;26.80;;
4420;SDS011;11824;51.178;13.546;2024-03-23T06:24:10;44.37;;;26.27;;
4420;SDS011;11824;51.178;13.546;2024-03-23T06:26:38;54.53;;;28.23;;
4420;SDS011;11824;51.178;13.546;2024-03-23T06:29:06;102.10;;;46.73;;
4420;SDS011;11824;51.178;13.546;2024-03-23T06:31:33;64.57;;;31.30;;
4420;SDS011;11824;51.178;13.546;2024-03-23T06:34:01;68.27;;;35.90;;
4420;SDS011;11824;51.178;13.546;2024-03-23T06:36:28;57.50;;;30.60;;
4420;SDS011;11824;51.178;13.546;2024-03-23T06:38:56;58.27;;;32.43;;
4420;SDS011;11824;51.178;13.546;2024-03-23T06:41:23;65.03;;;32.57;;
4420;SDS011;11824;51.178;13.546;2024-03-23T06:43:52;65.13;;;32.43;;
4420;SDS011;11824;51.178;13.546;2024-03-23T06:46:18;64.83;;;33.20;;
4420;SDS011;11824;51.178;13.546;2024-03-23T06:48:46;69.03;;;31.87;;
4420;SDS011;11824;51.178;13.546;2024-03-23T06:51:13;71.17;;;32.60;;
4420;SDS011;11824;51.178;13.546;2024-03-23T06:53:41;57.37;;;31.40;;
4420;SDS011;11824;51.178;13.546;2024-03-23T06:56:07;79.40;;;35.50;;
4420;SDS011;11824;51.178;13.546;2024-03-23T06:58:35;67.30;;;33.67;;
4420;SDS011;11824;51.178;13.546;2024-03-23T07:01:03;66.67;;;33.03;;
4420;SDS011;11824;51.178;13.546;2024-03-23T07:03:32;65.73;;;34.03;;
4420;SDS011;11824;51.178;13.546;2024-03-23T07:05:59;60.30;;;30.93;;
4420;SDS011;11824;51.178;13.546;2024-03-23T07:08:27;61.33;;;32.60;;
4420;SDS011;11824;51.178;13.546;2024-03-23T07:10:54;67.87;;;33.23;;
4420;SDS011;11824;51.178;13.546;2024-03-23T07:13:22;64.63;;;31.43;;
4420;SDS011;11824;51.178;13.546;2024-03-23T07:15:51;60.27;;;31.60;;
4420;SDS011;11824;51.178;13.546;2024-03-23T07:18:21;51.67;;;29.50;;
4420;SDS011;11824;51.178;13.546;2024-03-23T07:20:52;61.87;;;31.00;;
4420;SDS011;11824;51.178;13.546;2024-03-23T07:23:20;58.73;;;30.20;;
4420;SDS011;11824;51.178;13.546;2024-03-23T07:25:55;57.93;;;31.73;;
4420;SDS011;11824;51.178;13.546;2024-03-23T07:28:23;55.80;;;31.70;;
4420;SDS011;11824;51.178;13.546;2024-03-23T07:31:00;56.30;;;29.33;;
4420;SDS011;11824;51.178;13.546;2024-03-23T07:33:30;58.70;;;30.37;;
4420;SDS011;11824;51.178;13.546;2024-03-23T07:35:58;64.50;;;32.10;;
4420;SDS011;11824;51.178;13.546;2024-03-23T07:38:26;70.13;;;34.83;;
4420;SDS011;11824;51.178;13.546;2024-03-23T07:41:02;67.10;;;36.00;;
4420;SDS011;11824;51.178;13.546;2024-03-23T07:43:30;69.70;;;38.50;;
4420;SDS011;11824;51.178;13.546;2024-03-23T07:45:57;68.40;;;34.50;;
4420;SDS011;11824;51.178;13.546;2024-03-23T07:48:26;64.50;;;35.70;;
4420;SDS011;11824;51.178;13.546;2024-03-23T07:51:01;67.07;;;34.30;;
4420;SDS011;11824;51.178;13.546;2024-03-23T07:53:30;60.13;;;33.63;;
4420;SDS011;11824;51.178;13.546;2024-03-23T07:55:58;73.47;;;36.30;;
4420;SDS011;11824;51.178;13.546;2024-03-23T07:58:27;72.23;;;36.77;;
4420;SDS011;11824;51.178;13.546;2024-03-23T08:00:54;63.43;;;34.90;;
4420;SDS011;11824;51.178;13.546;2024-03-23T08:03:22;64.37;;;35.77;;
4420;SDS011;11824;51.178;13.546;2024-03-23T08:05:49;55.90;;;33.90;;
4420;SDS011;11824;51.178;13.546;2024-03-23T08:08:18;56.03;;;31.93;;
4420;SDS011;11824;51.178;13.546;2024-03-23T08:10:48;63.67;;;34.07;;
4420;SDS011;11824;51.178;13.546;2024-03-23T08:13:17;53.23;;;30.10;;
4420;SDS011;11824;51.178;13.546;2024-03-23T08:15:44;52.93;;;30.50;;
4420;SDS011;11824;51.178;13.546;2024-03-23T08:18:13;53.67;;;31.47;;
4420;SDS011;11824;51.178;13.546;2024-03-23T08:20:40;49.17;;;28.93;;
4420;SDS011;11824;51.178;13.546;2024-03-23T08:23:08;56.47;;;33.07;;
4420;SDS011;11824;51.178;13.546;2024-03-23T08:25:36;49.00;;;28.17;;
4420;SDS011;11824;51.178;13.546;2024-03-23T08:28:04;57.17;;;32.37;;
4420;SDS011;11824;51.178;13.546;2024-03-23T08:30:34;51.53;;;30.37;;
4420;SDS011;11824;51.178;13.546;2024-03-23T08:33:02;51.83;;;31.70;;
4420;SDS011;11824;51.178;13.546;2024-03-23T08:35:29;59.80;;;32.37;;
4420;SDS011;11824;51.178;13.546;2024-03-23T08:37:57;59.80;;;32.80;;
4420;SDS011;11824;51.178;13.546;2024-03-23T08:40:24;52.23;;;31.50;;
4420;SDS011;11824;51.178;13.546;2024-03-23T08:42:53;55.30;;;31.00;;
4420;SDS011;11824;51.178;13.546;2024-03-23T08:45:19;51.00;;;28.20;;
4420;SDS011;11824;51.178;13.546;2024-03-23T08:47:47;46.93;;;26.00;;
4420;SDS011;11824;51.178;13.546;2024-03-23T08:50:14;41.00;;;24.00;;
4420;SDS011;11824;51.178;13.546;2024-03-23T08:52:42;41.87;;;27.00;;
4420;SDS011;11824;51.178;13.546;2024-03-23T08:55:09;45.57;;;26.33;;
4420;SDS011;11824;51.178;13.546;2024-03-23T08:57:37;44.90;;;26.37;;
4420;SDS011;11824;51.178;13.546;2024-03-23T09:00:05;41.33;;;27.10;;
4420;SDS011;11824;51.178;13.546;2024-03-23T09:02:34;40.70;;;25.43;;
4420;SDS011;11824;51.178;13.546;2024-03-23T09:05:01;39.60;;;24.90;;
4420;SDS011;11824;51.178;13.546;2024-03-23T09:07:30;39.80;;;24.83;;
4420;SDS011;11824;51.178;13.546;2024-03-23T09:09:57;41.23;;;25.90;;
4420;SDS011;11824;51.178;13.546;2024-03-23T09:12:25;42.73;;;27.27;;
4420;SDS011;11824;51.178;13.546;2024-03-23T09:14:52;32.93;;;22.47;;
4420;SDS011;11824;51.178;13.546;2024-03-23T09:17:21;41.63;;;27.00;;
4420;SDS011;11824;51.178;13.546;2024-03-23T09:19:48;46.77;;;30.70;;
4420;SDS011;11824;51.178;13.546;2024-03-23T09:22:15;37.40;;;23.13;;
4420;SDS011;11824;51.178;13.546;2024-03-23T09:24:42;23.90;;;15.40;;
4420;SDS011;11824;51.178;13.546;2024-03-23T09:27:10;28.53;;;14.60;;
4420;SDS011;11824;51.178;13.546;2024-03-23T09:29:37;16.60;;;9.03;;
4420;SDS011;11824;51.178;13.546;2024-03-23T09:32:05;9.40;;;4.93;;
4420;SDS011;11824;51.178;13.546;2024-03-23T09:34:33;8.73;;;3.67;;
4420;SDS011;11824;51.178;13.546;2024-03-23T09:37:01;18.43;;;3.57;;
4420;SDS011;11824;51.178;13.546;2024-03-23T09:39:28;10.83;;;3.37;;
4420;SDS011;11824;51.178;13.546;2024-03-23T09:41:57;4.20;;;2.87;;
4420;SDS011;11824;51.178;13.546;2024-03-23T09:44:24;5.27;;;3.03;;
4420;SDS011;11824;51.178;13.546;2024-03-23T09:46:54;9.50;;;1.90;;
4420;SDS011;11824;51.178;13.546;2024-03-23T09:49:21;7.30;;;3.67;;
4420;SDS011;11824;51.178;13.546;2024-03-23T09:51:51;6.70;;;2.67;;
4420;SDS011;11824;51.178;13.546;2024-03-23T09:54:20;3.30;;;1.70;;
4420;SDS011;11824;51.178;13.546;2024-03-23T09:56:48;2.90;;;1.23;;
4420;SDS011;11824;51.178;13.546;2024-03-23T09:59:15;2.23;;;1.43;;
4420;SDS011;11824;51.178;13.546;2024-03-23T10:01:42;1.80;;;0.97;;
4420;SDS011;11824;51.178;13.546;2024-03-23T10:04:10;0.97;;;0.97;;
4420;SDS011;11824;51.178;13.546;2024-03-23T10:06:38;4.47;;;1.83;;
4420;SDS011;11824;51.178;13.546;2024-03-23T10:09:08;1.33;;;1.23;;
4420;SDS011;11824;51.178;13.546;2024-03-23T10:11:44;3.00;;;1.27;;
4420;SDS011;11824;51.178;13.546;2024-03-23T10:14:16;4.93;;;1.20;;
4420;SDS011;11824;51.178;13.546;2024-03-23T10:16:59;1.20;;;1.10;;
4420;SDS011;11824;51.178;13.546;2024-03-23T10:19:39;1.73;;;0.90;;
4420;SDS011;11824;51.178;13.546;2024-03-23T10:22:09;0.83;;;0.70;;
4420;SDS011;11824;51.178;13.546;2024-03-23T10:24:41;1.37;;;1.13;;
4420;SDS011;11824;51.178;13.546;2024-03-23T10:27:09;0.97;;;0.97;;
4420;SDS011;11824;51.178;13.546;2024-03-23T10:29:40;0.83;;;0.83;;
4420;SDS011;11824;51.178;13.546;2024-03-23T10:32:08;1.00;;;1.00;;
4420;SDS011;11824;51.178;13.546;2024-03-23T10:34:36;0.57;;;0.57;;
4420;SDS011;11824;51.178;13.546;2024-03-23T10:37:04;0.73;;;0.73;;
4420;SDS011;11824;51.178;13.546;2024-03-23T10:39:32;0.87;;;0.60;;
4420;SDS011;11824;51.178;13.546;2024-03-23T10:42:06;0.83;;;0.60;;
4420;SDS011;11824;51.178;13.546;2024-03-23T10:44:34;1.10;;;1.00;;
4420;SDS011;11824;51.178;13.546;2024-03-23T10:47:03;1.00;;;1.00;;
4420;SDS011;11824;51.178;13.546;2024-03-23T10:49:31;1.00;;;1.00;;
4420;SDS011;11824;51.178;13.546;2024-03-23T10:52:00;0.80;;;0.80;;
4420;SDS011;11824;51.178;13.546;2024-03-23T10:54:27;0.80;;;0.80;;
4420;SDS011;11824;51.178;13.546;2024-03-23T10:56:56;1.13;;;1.10;;
4420;SDS011;11824;51.178;13.546;2024-03-23T10:59:29;2.70;;;0.70;;
4420;SDS011;11824;51.178;13.546;2024-03-23T11:01:57;3.43;;;1.20;;
4420;SDS011;11824;51.178;13.546;2024-03-23T11:04:29;1.00;;;0.80;;
4420;SDS011;11824;51.178;13.546;2024-03-23T11:06:58;0.80;;;0.73;;
4420;SDS011;11824;51.178;13.546;2024-03-23T11:09:40;1.60;;;0.80;;
4420;SDS011;11824;51.178;13.546;2024-03-23T11:12:17;1.13;;;0.70;;
4420;SDS011;11824;51.178;13.546;2024-03-23T11:14:53;2.80;;;0.60;;
4420;SDS011;11824;51.178;13.546;2024-03-23T11:17:24;0.70;;;0.70;;
4420;SDS011;11824;51.178;13.546;2024-03-23T11:19:55;0.80;;;0.63;;
4420;SDS011;11824;51.178;13.546;2024-03-23T11:22:42;0.70;;;0.70;;
4420;SDS011;11824;51.178;13.546;2024-03-23T11:25:13;0.70;;;0.70;;
4420;SDS011;11824;51.178;13.546;2024-03-23T11:27:42;5.80;;;0.93;;
4420;SDS011;11824;51.178;13.546;2024-03-23T11:30:15;0.60;;;0.60;;
4420;SDS011;11824;51.178;13.546;2024-03-23T11:32:44;0.80;;;0.80;;
4420;SDS011;11824;51.178;13.546;2024-03-23T11:35:25;1.80;;;1.00;;
4420;SDS011;11824;51.178;13.546;2024-03-23T11:38:06;0.80;;;0.80;;
4420;SDS011;11824;51.178;13.546;2024-03-23T11:40:34;0.70;;;0.70;;
4420;SDS011;11824;51.178;13.546;2024-03-23T11:43:04;0.80;;;0.80;;
4420;SDS011;11824;51.178;13.546;2024-03-23T11:45:36;0.90;;;0.90;;
4420;SDS011;11824;51.178;13.546;2024-03-23T11:48:06;1.70;;;1.10;;
4420;SDS011;11824;51.178;13.546;2024-03-23T11:50:34;0.80;;;0.80;;
4420;SDS011;11824;51.178;13.546;2024-03-23T11:53:07;1.60;;;0.80;;
4420;SDS011;11824;51.178;13.546;2024-03-23T11:55:45;3.90;;;1.00;;
4420;SDS011;11824;51.178;13.546;2024-03-23T11:58:14;0.80;;;0.80;;
4420;SDS011;11824;51.178;13.546;2024-03-23T12:00:48;1.10;;;1.00;;
4420;SDS011;11824;51.178;13.546;2024-03-23T12:03:17;2.13;;;1.33;;
4420;SDS011;11824;51.178;13.546;2024-03-23T12:05:47;0.83;;;0.83;;
4420;SDS011;11824;51.178;13.546;2024-03-23T12:08:19;0.90;;;0.90;;
4420;SDS011;11824;51.178;13.546;2024-03-23T12:10:48;1.03;;;0.93;;
4420;SDS011;11824;51.178;13.546;2024-03-23T12:13:18;1.00;;;1.00;;
4420;SDS011;11824;51.178;13.546;2024-03-23T12:15:49;0.90;;;0.90;;
4420;SDS011;11824;51.178;13.546;2024-03-23T12:18:16;0.80;;;0.80;;
4420;SDS011;11824;51.178;13.546;2024-03-23T12:20:49;0.70;;;0.70;;
4420;SDS011;11824;51.178;13.546;2024-03-23T12:23:16;0.83;;;0.83;;
4420;SDS011;11824;51.178;13.546;2024-03-23T12:25:46;0.80;;;0.70;;
4420;SDS011;11824;51.178;13.546;2024-03-23T12:28:15;1.70;;;1.00;;
4420;SDS011;11824;51.178;13.546;2024-03-23T12:30:43;1.03;;;0.97;;
4420;SDS011;11824;51.178;13.546;2024-03-23T12:33:11;1.00;;;0.90;;
4420;SDS011;11824;51.178;13.546;2024-03-23T12:35:39;0.97;;;0.97;;
4420;SDS011;11824;51.178;13.546;2024-03-23T12:38:05;1.87;;;1.53;;
4420;SDS011;11824;51.178;13.546;2024-03-23T12:40:33;1.50;;;1.40;;
4420;SDS011;11824;51.178;13.546;2024-03-23T12:43:00;3.07;;;2.10;;
4420;SDS011;11824;51.178;13.546;2024-03-23T12:45:28;2.60;;;2.40;;
4420;SDS011;11824;51.178;13.546;2024-03-23T12:47:55;1.67;;;1.57;;
4420;SDS011;11824;51.178;13.546;2024-03-23T12:50:24;2.93;;;2.73;;
4420;SDS011;11824;51.178;13.546;2024-03-23T12:52:50;2.43;;;2.33;;
4420;SDS011;11824;51.178;13.546;2024-03-23T12:55:18;2.37;;;2.27;;
4420;SDS011;11824;51.178;13.546;2024-03-23T12:57:45;3.20;;;2.77;;
4420;SDS011;11824;51.178;13.546;2024-03-23T13:00:13;3.23;;;1.90;;
4420;SDS011;11824;51.178;13.546;2024-03-23T13:02:42;1.80;;;1.70;;
4420;SDS011;11824;51.178;13.546;2024-03-23T13:05:10;1.43;;;1.27;;
4420;SDS011;11824;51.178;13.546;2024-03-23T13:07:38;1.77;;;1.67;;
4420;SDS011;11824;51.178;13.546;2024-03-23T13:10:07;1.90;;;1.73;;
4420;SDS011;11824;51.178;13.546;2024-03-23T13:12:34;4.30;;;1.73;;
4420;SDS011;11824;51.178;13.546;2024-03-23T13:15:02;5.60;;;1.60;;
4420;SDS011;11824;51.178;13.546;2024-03-23T13:17:29;2.93;;;1.80;;
4420;SDS011;11824;51.178;13.546;2024-03-23T13:19:56;3.37;;;2.00;;
4420;SDS011;11824;51.178;13.546;2024-03-23T13:22:23;3.40;;;2.10;;
4420;SDS011;11824;51.178;13.546;2024-03-23T13:24:52;2.60;;;2.20;;
4420;SDS011;11824;51.178;13.546;2024-03-23T13:27:19;2.70;;;1.97;;
4420;SDS011;11824;51.178;13.546;2024-03-23T13:29:47;4.40;;;2.70;;
4420;SDS011;11824;51.178;13.546;2024-03-23T13:32:14;4.80;;;2.80;;
4420;SDS011;11824;51.178;13.546;2024-03-23T13:34:42;2.23;;;2.00;;
4420;SDS011;11824;51.178;13.546;2024-03-23T13:37:08;7.23;;;2.80;;
4420;SDS011;11824;51.178;13.546;2024-03-23T13:39:36;4.37;;;2.00;;
4420;SDS011;11824;51.178;13.546;2024-03-23T13:42:05;1.73;;;1.63;;
4420;SDS011;11824;51.178;13.546;2024-03-23T13:44:34;2.10;;;1.87;;
4420;SDS011;11824;51.178;13.546;2024-03-23T13:47:01;2.60;;;1.90;;
4420;SDS011;11824;51.178;13.546;2024-03-23T13:49:30;14.00;;;4.17;;
4420;SDS011;11824;51.178;13.546;2024-03-23T13:51:57;8.03;;;1.67;;
4420;SDS011;11824;51.178;13.546;2024-03-23T13:54:26;3.80;;;1.90;;
4420;SDS011;11824;51.178;13.546;2024-03-23T13:56:53;2.40;;;1.80;;
4420;SDS011;11824;51.178;13.546;2024-03-23T13:59:23;8.83;;;2.50;;
4420;SDS011;11824;51.178;13.546;2024-03-23T14:01:50;4.03;;;2.60;;
4420;SDS011;11824;51.178;13.546;2024-03-23T14:04:18;1.90;;;1.37;;
4420;SDS011;11824;51.178;13.546;2024-03-23T14:06:45;2.73;;;1.70;;
4420;SDS011;11824;51.178;13.546;2024-03-23T14:09:13;2.03;;;1.50;;
4420;SDS011;11824;51.178;13.546;2024-03-23T14:11:40;3.57;;;1.73;;
4420;SDS011;11824;51.178;13.546;2024-03-23T14:14:08;4.33;;;1.90;;
4420;SDS011;11824;51.178;13.546;2024-03-23T14:16:37;7.23;;;2.37;;
4420;SDS011;11824;51.178;13.546;2024-03-23T14:19:05;8.10;;;1.93;;
4420;SDS011;11824;51.178;13.546;2024-03-23T14:21:31;4.10;;;1.80;;
4420;SDS011;11824;51.178;13.546;2024-03-23T14:23:59;10.50;;;2.30;;
4420;SDS011;11824;51.178;13.546;2024-03-23T14:26:26;4.10;;;2.07;;
4420;SDS011;11824;51.178;13.546;2024-03-23T14:28:54;4.90;;;1.73;;
4420;SDS011;11824;51.178;13.546;2024-03-23T14:31:21;8.93;;;3.40;;
4420;SDS011;11824;51.178;13.546;2024-03-23T14:33:50;8.30;;;3.30;;
4420;SDS011;11824;51.178;13.546;2024-03-23T14:36:17;9.20;;;3.40;;
4420;SDS011;11824;51.178;13.546;2024-03-23T14:38:47;8.70;;;3.53;;
4420;SDS011;11824;51.178;13.546;2024-03-23T14:41:14;14.90;;;6.80;;
4420;SDS011;11824;51.178;13.546;2024-03-23T14:43:42;2.63;;;1.70;;
4420;SDS011;11824;51.178;13.546;2024-03-23T14:46:09;17.70;;;3.93;;
4420;SDS011;11824;51.178;13.546;2024-03-23T14:48:39;3.20;;;2.20;;
4420;SDS011;11824;51.178;13.546;2024-03-23T14:51:08;9.63;;;2.00;;
4420;SDS011;11824;51.178;13.546;2024-03-23T14:53:36;5.90;;;2.80;;
4420;SDS011;11824;51.178;13.546;2024-03-23T14:56:05;7.03;;;2.70;;
4420;SDS011;11824;51.178;13.546;2024-03-23T14:58:33;28.33;;;10.40;;
4420;SDS011;11824;51.178;13.546;2024-03-23T15:01:00;17.63;;;6.90;;
4420;SDS011;11824;51.178;13.546;2024-03-23T15:03:29;8.70;;;2.60;;
4420;SDS011;11824;51.178;13.546;2024-03-23T15:05:56;6.53;;;3.33;;
4420;SDS011;11824;51.178;13.546;2024-03-23T15:08:26;2.83;;;2.27;;
4420;SDS011;11824;51.178;13.546;2024-03-23T15:10:53;5.03;;;3.57;;
4420;SDS011;11824;51.178;13.546;2024-03-23T15:13:21;8.60;;;4.20;;
4420;SDS011;11824;51.178;13.546;2024-03-23T15:15:48;2.73;;;2.43;;
4420;SDS011;11824;51.178;13.546;2024-03-23T15:18:17;5.90;;;2.73;;
4420;SDS011;11824;51.178;13.546;2024-03-23T15:20:54;7.30;;;2.57;;
4420;SDS011;11824;51.178;13.546;2024-03-23T15:23:22;8.80;;;3.40;;
4420;SDS011;11824;51.178;13.546;2024-03-23T15:25:55;8.17;;;3.13;;
4420;SDS011;11824;51.178;13.546;2024-03-23T15:28:23;3.23;;;2.77;;
4420;SDS011;11824;51.178;13.546;2024-03-23T15:30:52;5.03;;;2.53;;